<?xml version="1.0" encoding="UTF-8" standalone="no" ?>
<gpx xmlns="http://www.topografix.com/GPX/1/1" creator="MapSource 6.11.6" version="1.1" xmlns:xsi="http://www.w3.org/2001/XMLSchema-instance" xsi:schemaLocation="http://www.topografix.com/GPX/1/1 http://www.topografix.com/GPX/1/1/gpx.xsd">

  <metadata>
    <link href="http://www.garmin.com">
      <text>Garmin International</text>
    </link>
    <time>2010-04-05T16:47:01Z</time>
    <bounds maxlat="50.633323" maxlon="6.487497" minlat="50.616345" minlon="6.452662"/>
  </metadata>

  <trk>
    <name>Rundweg Abtei Mariawald-Heimbach - Eifel</name>
    <extensions>
      <gpxx:TrackExtension xmlns:gpxx="http://www.garmin.com/xmlschemas/GpxExtensions/v3" xmlns:xsi="http://www.w3.org/2001/XMLSchema-instance" xsi:schemaLocation="http://www.garmin.com/xmlschemas/GpxExtensions/v3 http://www.garmin.com/xmlschemas/GpxExtensions/v3/GpxExtensionsv3.xsd">
        <gpxx:DisplayColor>White</gpxx:DisplayColor>
      </gpxx:TrackExtension>
    </extensions>
    <trkseg>
      <trkpt lat="50.618176" lon="6.479316">
        <ele>408.700000</ele>
        <time>2010-04-05T12:42:23Z</time>
      </trkpt>
      <trkpt lat="50.618268" lon="6.478865">
        <ele>407.300000</ele>
        <time>2010-04-05T12:42:49Z</time>
      </trkpt>
      <trkpt lat="50.618401" lon="6.479104">
        <ele>408.200000</ele>
        <time>2010-04-05T12:43:07Z</time>
      </trkpt>
      <trkpt lat="50.618437" lon="6.479139">
        <ele>406.800000</ele>
        <time>2010-04-05T12:43:11Z</time>
      </trkpt>
      <trkpt lat="50.618689" lon="6.479020">
        <ele>408.200000</ele>
        <time>2010-04-05T12:43:34Z</time>
      </trkpt>
      <trkpt lat="50.618644" lon="6.479104">
        <ele>407.700000</ele>
        <time>2010-04-05T12:43:41Z</time>
      </trkpt>
      <trkpt lat="50.618751" lon="6.479045">
        <ele>407.300000</ele>
        <time>2010-04-05T12:43:51Z</time>
      </trkpt>
      <trkpt lat="50.618645" lon="6.479020">
        <ele>407.700000</ele>
        <time>2010-04-05T12:44:00Z</time>
      </trkpt>
      <trkpt lat="50.618689" lon="6.478951">
        <ele>406.800000</ele>
        <time>2010-04-05T12:44:06Z</time>
      </trkpt>
      <trkpt lat="50.618652" lon="6.478951">
        <ele>408.200000</ele>
        <time>2010-04-05T12:44:09Z</time>
      </trkpt>
      <trkpt lat="50.618612" lon="6.478994">
        <ele>407.300000</ele>
        <time>2010-04-05T12:44:13Z</time>
      </trkpt>
      <trkpt lat="50.618631" lon="6.479180">
        <ele>407.700000</ele>
        <time>2010-04-05T12:44:24Z</time>
      </trkpt>
      <trkpt lat="50.618695" lon="6.479258">
        <ele>408.200000</ele>
        <time>2010-04-05T12:44:31Z</time>
      </trkpt>
      <trkpt lat="50.618738" lon="6.479266">
        <ele>407.700000</ele>
        <time>2010-04-05T12:44:35Z</time>
      </trkpt>
      <trkpt lat="50.618647" lon="6.479443">
        <ele>408.200000</ele>
        <time>2010-04-05T12:44:48Z</time>
      </trkpt>
      <trkpt lat="50.618569" lon="6.479455">
        <ele>407.700000</ele>
        <time>2010-04-05T12:44:55Z</time>
      </trkpt>
      <trkpt lat="50.618346" lon="6.479137">
        <ele>408.700000</ele>
        <time>2010-04-05T12:45:22Z</time>
      </trkpt>
      <trkpt lat="50.618271" lon="6.479122">
        <ele>409.200000</ele>
        <time>2010-04-05T12:45:29Z</time>
      </trkpt>
      <trkpt lat="50.618189" lon="6.479310">
        <ele>410.600000</ele>
        <time>2010-04-05T12:45:42Z</time>
      </trkpt>
      <trkpt lat="50.618146" lon="6.479407">
        <ele>409.200000</ele>
        <time>2010-04-05T12:45:48Z</time>
      </trkpt>
      <trkpt lat="50.618130" lon="6.479689">
        <ele>408.700000</ele>
        <time>2010-04-05T12:46:04Z</time>
      </trkpt>
      <trkpt lat="50.618159" lon="6.479821">
        <ele>407.300000</ele>
        <time>2010-04-05T12:46:12Z</time>
      </trkpt>
      <trkpt lat="50.618212" lon="6.479929">
        <ele>408.200000</ele>
        <time>2010-04-05T12:46:20Z</time>
      </trkpt>
      <trkpt lat="50.618187" lon="6.479964">
        <ele>405.800000</ele>
        <time>2010-04-05T12:46:23Z</time>
      </trkpt>
      <trkpt lat="50.618149" lon="6.479980">
        <ele>402.000000</ele>
        <time>2010-04-05T12:46:27Z</time>
      </trkpt>
      <trkpt lat="50.618144" lon="6.480076">
        <ele>402.400000</ele>
        <time>2010-04-05T12:46:32Z</time>
      </trkpt>
      <trkpt lat="50.618241" lon="6.480213">
        <ele>402.400000</ele>
        <time>2010-04-05T12:46:44Z</time>
      </trkpt>
      <trkpt lat="50.618536" lon="6.480908">
        <ele>402.000000</ele>
        <time>2010-04-05T12:47:31Z</time>
      </trkpt>
      <trkpt lat="50.618583" lon="6.481029">
        <ele>405.300000</ele>
        <time>2010-04-05T12:47:39Z</time>
      </trkpt>
      <trkpt lat="50.618712" lon="6.481267">
        <ele>403.400000</ele>
        <time>2010-04-05T12:47:57Z</time>
      </trkpt>
      <trkpt lat="50.618756" lon="6.481359">
        <ele>406.300000</ele>
        <time>2010-04-05T12:48:03Z</time>
      </trkpt>
      <trkpt lat="50.618869" lon="6.481559">
        <ele>404.400000</ele>
        <time>2010-04-05T12:48:18Z</time>
      </trkpt>
      <trkpt lat="50.618991" lon="6.481765">
        <ele>405.800000</ele>
        <time>2010-04-05T12:48:34Z</time>
      </trkpt>
      <trkpt lat="50.619059" lon="6.481957">
        <ele>403.900000</ele>
        <time>2010-04-05T12:48:47Z</time>
      </trkpt>
      <trkpt lat="50.619148" lon="6.482323">
        <ele>406.300000</ele>
        <time>2010-04-05T12:49:09Z</time>
      </trkpt>
      <trkpt lat="50.619277" lon="6.482741">
        <ele>410.600000</ele>
        <time>2010-04-05T12:49:35Z</time>
      </trkpt>
      <trkpt lat="50.619300" lon="6.482831">
        <ele>409.200000</ele>
        <time>2010-04-05T12:49:41Z</time>
      </trkpt>
      <trkpt lat="50.619514" lon="6.483339">
        <ele>408.200000</ele>
        <time>2010-04-05T12:50:15Z</time>
      </trkpt>
      <trkpt lat="50.619555" lon="6.483410">
        <ele>411.100000</ele>
        <time>2010-04-05T12:50:21Z</time>
      </trkpt>
      <trkpt lat="50.619680" lon="6.483559">
        <ele>407.700000</ele>
        <time>2010-04-05T12:50:35Z</time>
      </trkpt>
      <trkpt lat="50.619781" lon="6.483639">
        <ele>409.700000</ele>
        <time>2010-04-05T12:50:45Z</time>
      </trkpt>
      <trkpt lat="50.619860" lon="6.483703">
        <ele>406.800000</ele>
        <time>2010-04-05T12:50:53Z</time>
      </trkpt>
      <trkpt lat="50.619992" lon="6.483838">
        <ele>408.700000</ele>
        <time>2010-04-05T12:51:07Z</time>
      </trkpt>
      <trkpt lat="50.620145" lon="6.483859">
        <ele>408.200000</ele>
        <time>2010-04-05T12:51:20Z</time>
      </trkpt>
      <trkpt lat="50.620220" lon="6.483851">
        <ele>404.400000</ele>
        <time>2010-04-05T12:51:27Z</time>
      </trkpt>
      <trkpt lat="50.620296" lon="6.483863">
        <ele>404.400000</ele>
        <time>2010-04-05T12:51:34Z</time>
      </trkpt>
      <trkpt lat="50.620362" lon="6.483890">
        <ele>401.500000</ele>
        <time>2010-04-05T12:51:40Z</time>
      </trkpt>
      <trkpt lat="50.620629" lon="6.483889">
        <ele>400.000000</ele>
        <time>2010-04-05T12:52:04Z</time>
      </trkpt>
      <trkpt lat="50.620666" lon="6.483914">
        <ele>402.000000</ele>
        <time>2010-04-05T12:52:07Z</time>
      </trkpt>
      <trkpt lat="50.620951" lon="6.484216">
        <ele>397.600000</ele>
        <time>2010-04-05T12:52:38Z</time>
      </trkpt>
      <trkpt lat="50.621098" lon="6.484484">
        <ele>397.200000</ele>
        <time>2010-04-05T12:52:58Z</time>
      </trkpt>
      <trkpt lat="50.621230" lon="6.484553">
        <ele>397.200000</ele>
        <time>2010-04-05T12:53:10Z</time>
      </trkpt>
      <trkpt lat="50.621519" lon="6.484985">
        <ele>393.800000</ele>
        <time>2010-04-05T12:53:46Z</time>
      </trkpt>
      <trkpt lat="50.621561" lon="6.485105">
        <ele>397.200000</ele>
        <time>2010-04-05T12:53:54Z</time>
      </trkpt>
      <trkpt lat="50.621700" lon="6.485289">
        <ele>394.800000</ele>
        <time>2010-04-05T12:54:10Z</time>
      </trkpt>
      <trkpt lat="50.621856" lon="6.485407">
        <ele>395.700000</ele>
        <time>2010-04-05T12:54:25Z</time>
      </trkpt>
      <trkpt lat="50.622071" lon="6.485650">
        <ele>395.200000</ele>
        <time>2010-04-05T12:54:49Z</time>
      </trkpt>
      <trkpt lat="50.622212" lon="6.485859">
        <ele>397.200000</ele>
        <time>2010-04-05T12:55:06Z</time>
      </trkpt>
      <trkpt lat="50.622282" lon="6.486017">
        <ele>395.200000</ele>
        <time>2010-04-05T12:55:17Z</time>
      </trkpt>
      <trkpt lat="50.622400" lon="6.486055">
        <ele>395.700000</ele>
        <time>2010-04-05T12:55:28Z</time>
      </trkpt>
      <trkpt lat="50.622475" lon="6.486106">
        <ele>393.800000</ele>
        <time>2010-04-05T12:55:35Z</time>
      </trkpt>
      <trkpt lat="50.622548" lon="6.486109">
        <ele>397.200000</ele>
        <time>2010-04-05T12:55:42Z</time>
      </trkpt>
      <trkpt lat="50.622785" lon="6.486034">
        <ele>395.700000</ele>
        <time>2010-04-05T12:56:03Z</time>
      </trkpt>
      <trkpt lat="50.622810" lon="6.486046">
        <ele>396.700000</ele>
        <time>2010-04-05T12:56:06Z</time>
      </trkpt>
      <trkpt lat="50.622964" lon="6.485996">
        <ele>397.200000</ele>
        <time>2010-04-05T12:56:20Z</time>
      </trkpt>
      <trkpt lat="50.623077" lon="6.485996">
        <ele>396.700000</ele>
        <time>2010-04-05T12:56:30Z</time>
      </trkpt>
      <trkpt lat="50.623269" lon="6.486110">
        <ele>393.300000</ele>
        <time>2010-04-05T12:56:48Z</time>
      </trkpt>
      <trkpt lat="50.623403" lon="6.486290">
        <ele>393.300000</ele>
        <time>2010-04-05T12:57:04Z</time>
      </trkpt>
      <trkpt lat="50.623498" lon="6.486486">
        <ele>391.900000</ele>
        <time>2010-04-05T12:57:18Z</time>
      </trkpt>
      <trkpt lat="50.623562" lon="6.486533">
        <ele>391.900000</ele>
        <time>2010-04-05T12:57:24Z</time>
      </trkpt>
      <trkpt lat="50.623634" lon="6.486509">
        <ele>391.400000</ele>
        <time>2010-04-05T12:57:30Z</time>
      </trkpt>
      <trkpt lat="50.623895" lon="6.486649">
        <ele>386.100000</ele>
        <time>2010-04-05T12:57:55Z</time>
      </trkpt>
      <trkpt lat="50.623960" lon="6.486714">
        <ele>386.100000</ele>
        <time>2010-04-05T12:58:02Z</time>
      </trkpt>
      <trkpt lat="50.624032" lon="6.486623">
        <ele>386.100000</ele>
        <time>2010-04-05T12:58:10Z</time>
      </trkpt>
      <trkpt lat="50.624053" lon="6.486704">
        <ele>386.100000</ele>
        <time>2010-04-05T12:58:15Z</time>
      </trkpt>
      <trkpt lat="50.624238" lon="6.486835">
        <ele>381.800000</ele>
        <time>2010-04-05T12:58:33Z</time>
      </trkpt>
      <trkpt lat="50.624630" lon="6.486909">
        <ele>380.800000</ele>
        <time>2010-04-05T12:59:08Z</time>
      </trkpt>
      <trkpt lat="50.624765" lon="6.487030">
        <ele>378.400000</ele>
        <time>2010-04-05T12:59:22Z</time>
      </trkpt>
      <trkpt lat="50.624718" lon="6.487088">
        <ele>377.500000</ele>
        <time>2010-04-05T12:59:28Z</time>
      </trkpt>
      <trkpt lat="50.625063" lon="6.487173">
        <ele>370.700000</ele>
        <time>2010-04-05T12:59:59Z</time>
      </trkpt>
      <trkpt lat="50.625350" lon="6.487289">
        <ele>364.500000</ele>
        <time>2010-04-05T13:00:25Z</time>
      </trkpt>
      <trkpt lat="50.625429" lon="6.487335">
        <ele>363.000000</ele>
        <time>2010-04-05T13:00:33Z</time>
      </trkpt>
      <trkpt lat="50.625650" lon="6.487359">
        <ele>361.600000</ele>
        <time>2010-04-05T13:00:53Z</time>
      </trkpt>
      <trkpt lat="50.625981" lon="6.487497">
        <ele>356.800000</ele>
        <time>2010-04-05T13:01:23Z</time>
      </trkpt>
      <trkpt lat="50.626139" lon="6.487490">
        <ele>354.900000</ele>
        <time>2010-04-05T13:01:37Z</time>
      </trkpt>
      <trkpt lat="50.626130" lon="6.487490">
        <ele>351.500000</ele>
        <time>2010-04-05T13:01:38Z</time>
      </trkpt>
      <trkpt lat="50.626130" lon="6.487490">
        <ele>353.900000</ele>
        <time>2010-04-05T13:01:38Z</time>
      </trkpt>
      <trkpt lat="50.626570" lon="6.487356">
        <ele>346.200000</ele>
        <time>2010-04-05T13:02:18Z</time>
      </trkpt>
      <trkpt lat="50.626883" lon="6.487194">
        <ele>343.300000</ele>
        <time>2010-04-05T13:02:47Z</time>
      </trkpt>
      <trkpt lat="50.627091" lon="6.487172">
        <ele>340.400000</ele>
        <time>2010-04-05T13:03:06Z</time>
      </trkpt>
      <trkpt lat="50.627341" lon="6.487214">
        <ele>338.000000</ele>
        <time>2010-04-05T13:03:28Z</time>
      </trkpt>
      <trkpt lat="50.627643" lon="6.487164">
        <ele>337.100000</ele>
        <time>2010-04-05T13:03:56Z</time>
      </trkpt>
      <trkpt lat="50.627654" lon="6.487131">
        <ele>338.000000</ele>
        <time>2010-04-05T13:03:58Z</time>
      </trkpt>
      <trkpt lat="50.627869" lon="6.487032">
        <ele>338.500000</ele>
        <time>2010-04-05T13:04:18Z</time>
      </trkpt>
      <trkpt lat="50.627945" lon="6.486966">
        <ele>338.000000</ele>
        <time>2010-04-05T13:04:25Z</time>
      </trkpt>
      <trkpt lat="50.628053" lon="6.486780">
        <ele>339.000000</ele>
        <time>2010-04-05T13:04:40Z</time>
      </trkpt>
      <trkpt lat="50.628255" lon="6.486267">
        <ele>333.200000</ele>
        <time>2010-04-05T13:05:14Z</time>
      </trkpt>
      <trkpt lat="50.628466" lon="6.485985">
        <ele>331.800000</ele>
        <time>2010-04-05T13:05:38Z</time>
      </trkpt>
      <trkpt lat="50.628625" lon="6.485871">
        <ele>332.300000</ele>
        <time>2010-04-05T13:05:54Z</time>
      </trkpt>
      <trkpt lat="50.628733" lon="6.485840">
        <ele>332.300000</ele>
        <time>2010-04-05T13:06:04Z</time>
      </trkpt>
      <trkpt lat="50.628892" lon="6.485829">
        <ele>333.700000</ele>
        <time>2010-04-05T13:06:18Z</time>
      </trkpt>
      <trkpt lat="50.629168" lon="6.485487">
        <ele>335.200000</ele>
        <time>2010-04-05T13:06:49Z</time>
      </trkpt>
      <trkpt lat="50.629402" lon="6.484876">
        <ele>340.900000</ele>
        <time>2010-04-05T13:07:30Z</time>
      </trkpt>
      <trkpt lat="50.629422" lon="6.484690">
        <ele>340.000000</ele>
        <time>2010-04-05T13:07:40Z</time>
      </trkpt>
      <trkpt lat="50.629588" lon="6.484335">
        <ele>343.300000</ele>
        <time>2010-04-05T13:08:05Z</time>
      </trkpt>
      <trkpt lat="50.629695" lon="6.483922">
        <ele>345.300000</ele>
        <time>2010-04-05T13:08:31Z</time>
      </trkpt>
      <trkpt lat="50.629697" lon="6.483600">
        <ele>347.700000</ele>
        <time>2010-04-05T13:08:49Z</time>
      </trkpt>
      <trkpt lat="50.629737" lon="6.483368">
        <ele>348.100000</ele>
        <time>2010-04-05T13:09:02Z</time>
      </trkpt>
      <trkpt lat="50.629672" lon="6.483127">
        <ele>349.600000</ele>
        <time>2010-04-05T13:09:17Z</time>
      </trkpt>
      <trkpt lat="50.629673" lon="6.483032">
        <ele>349.100000</ele>
        <time>2010-04-05T13:09:23Z</time>
      </trkpt>
      <trkpt lat="50.629663" lon="6.483041">
        <ele>349.600000</ele>
        <time>2010-04-05T13:09:24Z</time>
      </trkpt>
      <trkpt lat="50.629733" lon="6.483094">
        <ele>347.200000</ele>
        <time>2010-04-05T13:09:31Z</time>
      </trkpt>
      <trkpt lat="50.629926" lon="6.483144">
        <ele>346.200000</ele>
        <time>2010-04-05T13:09:48Z</time>
      </trkpt>
      <trkpt lat="50.630118" lon="6.483149">
        <ele>343.300000</ele>
        <time>2010-04-05T13:10:05Z</time>
      </trkpt>
      <trkpt lat="50.630279" lon="6.483117">
        <ele>341.400000</ele>
        <time>2010-04-05T13:10:20Z</time>
      </trkpt>
      <trkpt lat="50.630357" lon="6.483139">
        <ele>337.100000</ele>
        <time>2010-04-05T13:10:27Z</time>
      </trkpt>
      <trkpt lat="50.630352" lon="6.483175">
        <ele>334.200000</ele>
        <time>2010-04-05T13:10:29Z</time>
      </trkpt>
      <trkpt lat="50.630442" lon="6.483147">
        <ele>331.800000</ele>
        <time>2010-04-05T13:10:37Z</time>
      </trkpt>
      <trkpt lat="50.630562" lon="6.482961">
        <ele>326.500000</ele>
        <time>2010-04-05T13:10:52Z</time>
      </trkpt>
      <trkpt lat="50.630613" lon="6.482948">
        <ele>325.100000</ele>
        <time>2010-04-05T13:10:57Z</time>
      </trkpt>
      <trkpt lat="50.630575" lon="6.483024">
        <ele>324.100000</ele>
        <time>2010-04-05T13:11:02Z</time>
      </trkpt>
      <trkpt lat="50.630624" lon="6.483044">
        <ele>322.200000</ele>
        <time>2010-04-05T13:11:07Z</time>
      </trkpt>
      <trkpt lat="50.630611" lon="6.483328">
        <ele>316.900000</ele>
        <time>2010-04-05T13:11:23Z</time>
      </trkpt>
      <trkpt lat="50.630671" lon="6.483312">
        <ele>316.900000</ele>
        <time>2010-04-05T13:11:28Z</time>
      </trkpt>
      <trkpt lat="50.630732" lon="6.483234">
        <ele>314.000000</ele>
        <time>2010-04-05T13:11:35Z</time>
      </trkpt>
      <trkpt lat="50.630828" lon="6.482946">
        <ele>312.600000</ele>
        <time>2010-04-05T13:11:54Z</time>
      </trkpt>
      <trkpt lat="50.630932" lon="6.482755">
        <ele>308.700000</ele>
        <time>2010-04-05T13:12:08Z</time>
      </trkpt>
      <trkpt lat="50.630953" lon="6.482799">
        <ele>304.900000</ele>
        <time>2010-04-05T13:12:11Z</time>
      </trkpt>
      <trkpt lat="50.630999" lon="6.482953">
        <ele>301.500000</ele>
        <time>2010-04-05T13:12:21Z</time>
      </trkpt>
      <trkpt lat="50.631052" lon="6.482903">
        <ele>300.100000</ele>
        <time>2010-04-05T13:12:26Z</time>
      </trkpt>
      <trkpt lat="50.631001" lon="6.482985">
        <ele>298.100000</ele>
        <time>2010-04-05T13:12:33Z</time>
      </trkpt>
      <trkpt lat="50.631024" lon="6.482992">
        <ele>296.200000</ele>
        <time>2010-04-05T13:12:35Z</time>
      </trkpt>
      <trkpt lat="50.631095" lon="6.482892">
        <ele>295.300000</ele>
        <time>2010-04-05T13:12:43Z</time>
      </trkpt>
      <trkpt lat="50.631104" lon="6.482832">
        <ele>295.300000</ele>
        <time>2010-04-05T13:12:47Z</time>
      </trkpt>
      <trkpt lat="50.631167" lon="6.482667">
        <ele>294.300000</ele>
        <time>2010-04-05T13:12:58Z</time>
      </trkpt>
      <trkpt lat="50.631216" lon="6.482663">
        <ele>291.400000</ele>
        <time>2010-04-05T13:13:02Z</time>
      </trkpt>
      <trkpt lat="50.631210" lon="6.482717">
        <ele>290.000000</ele>
        <time>2010-04-05T13:13:05Z</time>
      </trkpt>
      <trkpt lat="50.631239" lon="6.482722">
        <ele>288.100000</ele>
        <time>2010-04-05T13:13:08Z</time>
      </trkpt>
      <trkpt lat="50.631368" lon="6.482576">
        <ele>284.200000</ele>
        <time>2010-04-05T13:13:22Z</time>
      </trkpt>
      <trkpt lat="50.631373" lon="6.482599">
        <ele>283.200000</ele>
        <time>2010-04-05T13:13:23Z</time>
      </trkpt>
      <trkpt lat="50.631409" lon="6.482638">
        <ele>281.800000</ele>
        <time>2010-04-05T13:13:27Z</time>
      </trkpt>
      <trkpt lat="50.631536" lon="6.482528">
        <ele>278.900000</ele>
        <time>2010-04-05T13:13:40Z</time>
      </trkpt>
      <trkpt lat="50.631553" lon="6.482524">
        <ele>276.500000</ele>
        <time>2010-04-05T13:13:42Z</time>
      </trkpt>
      <trkpt lat="50.631665" lon="6.482300">
        <ele>273.600000</ele>
        <time>2010-04-05T13:13:58Z</time>
      </trkpt>
      <trkpt lat="50.631662" lon="6.482284">
        <ele>272.700000</ele>
        <time>2010-04-05T13:13:59Z</time>
      </trkpt>
      <trkpt lat="50.631715" lon="6.482093">
        <ele>270.700000</ele>
        <time>2010-04-05T13:14:11Z</time>
      </trkpt>
      <trkpt lat="50.631547" lon="6.482005">
        <ele>266.900000</ele>
        <time>2010-04-05T13:14:26Z</time>
      </trkpt>
      <trkpt lat="50.631558" lon="6.481935">
        <ele>264.500000</ele>
        <time>2010-04-05T13:14:30Z</time>
      </trkpt>
      <trkpt lat="50.631380" lon="6.481907">
        <ele>259.700000</ele>
        <time>2010-04-05T13:14:46Z</time>
      </trkpt>
      <trkpt lat="50.631430" lon="6.481909">
        <ele>258.700000</ele>
        <time>2010-04-05T13:14:51Z</time>
      </trkpt>
      <trkpt lat="50.631541" lon="6.481832">
        <ele>254.400000</ele>
        <time>2010-04-05T13:15:02Z</time>
      </trkpt>
      <trkpt lat="50.631505" lon="6.481749">
        <ele>251.000000</ele>
        <time>2010-04-05T13:15:07Z</time>
      </trkpt>
      <trkpt lat="50.631421" lon="6.481712">
        <ele>249.600000</ele>
        <time>2010-04-05T13:15:15Z</time>
      </trkpt>
      <trkpt lat="50.631294" lon="6.481769">
        <ele>245.300000</ele>
        <time>2010-04-05T13:15:27Z</time>
      </trkpt>
      <trkpt lat="50.631230" lon="6.481758">
        <ele>243.800000</ele>
        <time>2010-04-05T13:15:33Z</time>
      </trkpt>
      <trkpt lat="50.631011" lon="6.481656">
        <ele>241.900000</ele>
        <time>2010-04-05T13:15:53Z</time>
      </trkpt>
      <trkpt lat="50.630883" lon="6.481628">
        <ele>238.500000</ele>
        <time>2010-04-05T13:16:05Z</time>
      </trkpt>
      <trkpt lat="50.630737" lon="6.481541">
        <ele>234.700000</ele>
        <time>2010-04-05T13:16:19Z</time>
      </trkpt>
      <trkpt lat="50.630622" lon="6.481518">
        <ele>231.300000</ele>
        <time>2010-04-05T13:16:29Z</time>
      </trkpt>
      <trkpt lat="50.630548" lon="6.481449">
        <ele>228.000000</ele>
        <time>2010-04-05T13:16:37Z</time>
      </trkpt>
      <trkpt lat="50.630567" lon="6.481416">
        <ele>228.500000</ele>
        <time>2010-04-05T13:16:39Z</time>
      </trkpt>
      <trkpt lat="50.630881" lon="6.481378">
        <ele>226.000000</ele>
        <time>2010-04-05T13:17:07Z</time>
      </trkpt>
      <trkpt lat="50.631112" lon="6.481330">
        <ele>224.600000</ele>
        <time>2010-04-05T13:17:28Z</time>
      </trkpt>
      <trkpt lat="50.631409" lon="6.481329">
        <ele>221.700000</ele>
        <time>2010-04-05T13:17:54Z</time>
      </trkpt>
      <trkpt lat="50.631561" lon="6.481360">
        <ele>219.300000</ele>
        <time>2010-04-05T13:18:08Z</time>
      </trkpt>
      <trkpt lat="50.631688" lon="6.481354">
        <ele>218.800000</ele>
        <time>2010-04-05T13:18:19Z</time>
      </trkpt>
      <trkpt lat="50.631756" lon="6.481271">
        <ele>218.800000</ele>
        <time>2010-04-05T13:18:27Z</time>
      </trkpt>
      <trkpt lat="50.631855" lon="6.481226">
        <ele>216.900000</ele>
        <time>2010-04-05T13:18:36Z</time>
      </trkpt>
      <trkpt lat="50.632297" lon="6.481118">
        <ele>213.600000</ele>
        <time>2010-04-05T13:19:16Z</time>
      </trkpt>
      <trkpt lat="50.632415" lon="6.481008">
        <ele>214.000000</ele>
        <time>2010-04-05T13:19:28Z</time>
      </trkpt>
      <trkpt lat="50.632520" lon="6.480865">
        <ele>210.700000</ele>
        <time>2010-04-05T13:19:41Z</time>
      </trkpt>
      <trkpt lat="50.632578" lon="6.480748">
        <ele>212.100000</ele>
        <time>2010-04-05T13:19:49Z</time>
      </trkpt>
      <trkpt lat="50.632437" lon="6.480794">
        <ele>207.300000</ele>
        <time>2010-04-05T13:20:02Z</time>
      </trkpt>
      <trkpt lat="50.632340" lon="6.480784">
        <ele>206.300000</ele>
        <time>2010-04-05T13:20:11Z</time>
      </trkpt>
      <trkpt lat="50.632329" lon="6.480729">
        <ele>205.400000</ele>
        <time>2010-04-05T13:20:14Z</time>
      </trkpt>
      <trkpt lat="50.632428" lon="6.480531">
        <ele>202.500000</ele>
        <time>2010-04-05T13:20:28Z</time>
      </trkpt>
      <trkpt lat="50.632505" lon="6.480314">
        <ele>200.100000</ele>
        <time>2010-04-05T13:20:42Z</time>
      </trkpt>
      <trkpt lat="50.632510" lon="6.480203">
        <ele>201.100000</ele>
        <time>2010-04-05T13:20:49Z</time>
      </trkpt>
      <trkpt lat="50.632575" lon="6.480085">
        <ele>201.500000</ele>
        <time>2010-04-05T13:20:58Z</time>
      </trkpt>
      <trkpt lat="50.632730" lon="6.479931">
        <ele>199.100000</ele>
        <time>2010-04-05T13:21:14Z</time>
      </trkpt>
      <trkpt lat="50.632745" lon="6.479903">
        <ele>201.500000</ele>
        <time>2010-04-05T13:21:16Z</time>
      </trkpt>
      <trkpt lat="50.632762" lon="6.479854">
        <ele>200.100000</ele>
        <time>2010-04-05T13:21:19Z</time>
      </trkpt>
      <trkpt lat="50.632773" lon="6.479817">
        <ele>201.500000</ele>
        <time>2010-04-05T13:21:21Z</time>
      </trkpt>
      <trkpt lat="50.632805" lon="6.479775">
        <ele>200.100000</ele>
        <time>2010-04-05T13:21:25Z</time>
      </trkpt>
      <trkpt lat="50.632862" lon="6.479687">
        <ele>201.100000</ele>
        <time>2010-04-05T13:21:32Z</time>
      </trkpt>
      <trkpt lat="50.632863" lon="6.479621">
        <ele>200.100000</ele>
        <time>2010-04-05T13:21:36Z</time>
      </trkpt>
      <trkpt lat="50.632921" lon="6.479393">
        <ele>201.500000</ele>
        <time>2010-04-05T13:21:50Z</time>
      </trkpt>
      <trkpt lat="50.632948" lon="6.479230">
        <ele>200.100000</ele>
        <time>2010-04-05T13:21:59Z</time>
      </trkpt>
      <trkpt lat="50.633091" lon="6.478547">
        <ele>199.600000</ele>
        <time>2010-04-05T13:22:40Z</time>
      </trkpt>
      <trkpt lat="50.633119" lon="6.478238">
        <ele>201.500000</ele>
        <time>2010-04-05T13:22:58Z</time>
      </trkpt>
      <trkpt lat="50.633120" lon="6.478008">
        <ele>199.600000</ele>
        <time>2010-04-05T13:23:11Z</time>
      </trkpt>
      <trkpt lat="50.633168" lon="6.477806">
        <ele>200.600000</ele>
        <time>2010-04-05T13:23:23Z</time>
      </trkpt>
      <trkpt lat="50.633178" lon="6.477595">
        <ele>201.500000</ele>
        <time>2010-04-05T13:23:35Z</time>
      </trkpt>
      <trkpt lat="50.633231" lon="6.477404">
        <ele>202.000000</ele>
        <time>2010-04-05T13:23:47Z</time>
      </trkpt>
      <trkpt lat="50.633321" lon="6.476860">
        <ele>201.500000</ele>
        <time>2010-04-05T13:24:19Z</time>
      </trkpt>
      <trkpt lat="50.633323" lon="6.476895">
        <ele>202.000000</ele>
        <time>2010-04-05T13:24:21Z</time>
      </trkpt>
      <trkpt lat="50.633188" lon="6.476866">
        <ele>203.000000</ele>
        <time>2010-04-05T13:24:33Z</time>
      </trkpt>
      <trkpt lat="50.632997" lon="6.476760">
        <ele>203.000000</ele>
        <time>2010-04-05T13:24:51Z</time>
      </trkpt>
      <trkpt lat="50.632864" lon="6.476626">
        <ele>202.500000</ele>
        <time>2010-04-05T13:25:05Z</time>
      </trkpt>
      <trkpt lat="50.632756" lon="6.476587">
        <ele>202.500000</ele>
        <time>2010-04-05T13:25:15Z</time>
      </trkpt>
      <trkpt lat="50.632685" lon="6.476637">
        <ele>202.500000</ele>
        <time>2010-04-05T13:25:22Z</time>
      </trkpt>
      <trkpt lat="50.632589" lon="6.476638">
        <ele>203.900000</ele>
        <time>2010-04-05T13:25:30Z</time>
      </trkpt>
      <trkpt lat="50.632488" lon="6.476849">
        <ele>205.400000</ele>
        <time>2010-04-05T13:25:45Z</time>
      </trkpt>
      <trkpt lat="50.632183" lon="6.477681">
        <ele>204.900000</ele>
        <time>2010-04-05T13:26:40Z</time>
      </trkpt>
      <trkpt lat="50.632075" lon="6.478052">
        <ele>204.900000</ele>
        <time>2010-04-05T13:27:03Z</time>
      </trkpt>
      <trkpt lat="50.632021" lon="6.478367">
        <ele>204.400000</ele>
        <time>2010-04-05T13:27:21Z</time>
      </trkpt>
      <trkpt lat="50.632017" lon="6.478528">
        <ele>204.900000</ele>
        <time>2010-04-05T13:27:30Z</time>
      </trkpt>
      <trkpt lat="50.631951" lon="6.478772">
        <ele>203.500000</ele>
        <time>2010-04-05T13:27:45Z</time>
      </trkpt>
      <trkpt lat="50.631712" lon="6.479295">
        <ele>203.900000</ele>
        <time>2010-04-05T13:28:22Z</time>
      </trkpt>
      <trkpt lat="50.631545" lon="6.479458">
        <ele>203.500000</ele>
        <time>2010-04-05T13:28:39Z</time>
      </trkpt>
      <trkpt lat="50.631504" lon="6.479624">
        <ele>203.500000</ele>
        <time>2010-04-05T13:28:49Z</time>
      </trkpt>
      <trkpt lat="50.631340" lon="6.479739">
        <ele>203.500000</ele>
        <time>2010-04-05T13:29:05Z</time>
      </trkpt>
      <trkpt lat="50.631233" lon="6.479772">
        <ele>203.900000</ele>
        <time>2010-04-05T13:29:15Z</time>
      </trkpt>
      <trkpt lat="50.630875" lon="6.479666">
        <ele>205.900000</ele>
        <time>2010-04-05T13:29:48Z</time>
      </trkpt>
      <trkpt lat="50.630661" lon="6.479716">
        <ele>205.400000</ele>
        <time>2010-04-05T13:30:07Z</time>
      </trkpt>
      <trkpt lat="50.630503" lon="6.479708">
        <ele>204.900000</ele>
        <time>2010-04-05T13:30:21Z</time>
      </trkpt>
      <trkpt lat="50.630462" lon="6.479676">
        <ele>205.900000</ele>
        <time>2010-04-05T13:30:25Z</time>
      </trkpt>
      <trkpt lat="50.630335" lon="6.479618">
        <ele>205.400000</ele>
        <time>2010-04-05T13:30:37Z</time>
      </trkpt>
      <trkpt lat="50.629939" lon="6.479581">
        <ele>205.900000</ele>
        <time>2010-04-05T13:31:12Z</time>
      </trkpt>
      <trkpt lat="50.629537" lon="6.479429">
        <ele>204.400000</ele>
        <time>2010-04-05T13:31:49Z</time>
      </trkpt>
      <trkpt lat="50.629407" lon="6.479313">
        <ele>205.400000</ele>
        <time>2010-04-05T13:32:02Z</time>
      </trkpt>
      <trkpt lat="50.629361" lon="6.479222">
        <ele>205.400000</ele>
        <time>2010-04-05T13:32:09Z</time>
      </trkpt>
      <trkpt lat="50.629249" lon="6.478740">
        <ele>208.300000</ele>
        <time>2010-04-05T13:32:38Z</time>
      </trkpt>
      <trkpt lat="50.629178" lon="6.478598">
        <ele>209.700000</ele>
        <time>2010-04-05T13:32:48Z</time>
      </trkpt>
      <trkpt lat="50.628996" lon="6.477681">
        <ele>214.500000</ele>
        <time>2010-04-05T13:33:43Z</time>
      </trkpt>
      <trkpt lat="50.628855" lon="6.477315">
        <ele>216.000000</ele>
        <time>2010-04-05T13:34:07Z</time>
      </trkpt>
      <trkpt lat="50.628717" lon="6.477117">
        <ele>217.400000</ele>
        <time>2010-04-05T13:34:23Z</time>
      </trkpt>
      <trkpt lat="50.628674" lon="6.477026">
        <ele>218.400000</ele>
        <time>2010-04-05T13:34:30Z</time>
      </trkpt>
      <trkpt lat="50.628594" lon="6.476607">
        <ele>221.200000</ele>
        <time>2010-04-05T13:34:55Z</time>
      </trkpt>
      <trkpt lat="50.628578" lon="6.476453">
        <ele>221.200000</ele>
        <time>2010-04-05T13:35:03Z</time>
      </trkpt>
      <trkpt lat="50.628611" lon="6.476347">
        <ele>220.300000</ele>
        <time>2010-04-05T13:35:10Z</time>
      </trkpt>
      <trkpt lat="50.628365" lon="6.475592">
        <ele>211.100000</ele>
        <time>2010-04-05T13:35:58Z</time>
      </trkpt>
      <trkpt lat="50.628311" lon="6.475271">
        <ele>210.200000</ele>
        <time>2010-04-05T13:36:17Z</time>
      </trkpt>
      <trkpt lat="50.628290" lon="6.474901">
        <ele>209.700000</ele>
        <time>2010-04-05T13:36:38Z</time>
      </trkpt>
      <trkpt lat="50.628354" lon="6.474585">
        <ele>211.100000</ele>
        <time>2010-04-05T13:36:57Z</time>
      </trkpt>
      <trkpt lat="50.628345" lon="6.474425">
        <ele>210.700000</ele>
        <time>2010-04-05T13:37:06Z</time>
      </trkpt>
      <trkpt lat="50.628389" lon="6.474168">
        <ele>210.200000</ele>
        <time>2010-04-05T13:37:21Z</time>
      </trkpt>
      <trkpt lat="50.628577" lon="6.473697">
        <ele>210.700000</ele>
        <time>2010-04-05T13:37:52Z</time>
      </trkpt>
      <trkpt lat="50.628639" lon="6.472991">
        <ele>209.700000</ele>
        <time>2010-04-05T13:38:33Z</time>
      </trkpt>
      <trkpt lat="50.628669" lon="6.472531">
        <ele>211.600000</ele>
        <time>2010-04-05T13:38:59Z</time>
      </trkpt>
      <trkpt lat="50.628765" lon="6.471984">
        <ele>209.700000</ele>
        <time>2010-04-05T13:39:31Z</time>
      </trkpt>
      <trkpt lat="50.628794" lon="6.471562">
        <ele>210.700000</ele>
        <time>2010-04-05T13:39:55Z</time>
      </trkpt>
      <trkpt lat="50.628796" lon="6.471161">
        <ele>211.100000</ele>
        <time>2010-04-05T13:40:18Z</time>
      </trkpt>
      <trkpt lat="50.628846" lon="6.470765">
        <ele>211.100000</ele>
        <time>2010-04-05T13:40:41Z</time>
      </trkpt>
      <trkpt lat="50.628875" lon="6.470701">
        <ele>211.600000</ele>
        <time>2010-04-05T13:40:45Z</time>
      </trkpt>
      <trkpt lat="50.628962" lon="6.469754">
        <ele>211.100000</ele>
        <time>2010-04-05T13:41:39Z</time>
      </trkpt>
      <trkpt lat="50.629016" lon="6.469449">
        <ele>214.000000</ele>
        <time>2010-04-05T13:41:57Z</time>
      </trkpt>
      <trkpt lat="50.629048" lon="6.469148">
        <ele>213.600000</ele>
        <time>2010-04-05T13:42:14Z</time>
      </trkpt>
      <trkpt lat="50.629147" lon="6.468865">
        <ele>212.100000</ele>
        <time>2010-04-05T13:42:33Z</time>
      </trkpt>
      <trkpt lat="50.629166" lon="6.468677">
        <ele>212.100000</ele>
        <time>2010-04-05T13:42:43Z</time>
      </trkpt>
      <trkpt lat="50.629314" lon="6.468189">
        <ele>212.600000</ele>
        <time>2010-04-05T13:43:14Z</time>
      </trkpt>
      <trkpt lat="50.629433" lon="6.467647">
        <ele>212.100000</ele>
        <time>2010-04-05T13:43:46Z</time>
      </trkpt>
      <trkpt lat="50.629525" lon="6.467463">
        <ele>213.100000</ele>
        <time>2010-04-05T13:44:00Z</time>
      </trkpt>
      <trkpt lat="50.629640" lon="6.466511">
        <ele>217.900000</ele>
        <time>2010-04-05T13:44:55Z</time>
      </trkpt>
      <trkpt lat="50.629740" lon="6.466380">
        <ele>219.800000</ele>
        <time>2010-04-05T13:45:06Z</time>
      </trkpt>
      <trkpt lat="50.629791" lon="6.466167">
        <ele>219.300000</ele>
        <time>2010-04-05T13:45:19Z</time>
      </trkpt>
      <trkpt lat="50.629821" lon="6.465588">
        <ele>217.400000</ele>
        <time>2010-04-05T13:45:52Z</time>
      </trkpt>
      <trkpt lat="50.629844" lon="6.465215">
        <ele>212.100000</ele>
        <time>2010-04-05T13:46:13Z</time>
      </trkpt>
      <trkpt lat="50.629942" lon="6.464836">
        <ele>212.100000</ele>
        <time>2010-04-05T13:46:36Z</time>
      </trkpt>
      <trkpt lat="50.630000" lon="6.464729">
        <ele>212.600000</ele>
        <time>2010-04-05T13:46:44Z</time>
      </trkpt>
      <trkpt lat="50.630059" lon="6.464535">
        <ele>212.600000</ele>
        <time>2010-04-05T13:46:56Z</time>
      </trkpt>
      <trkpt lat="50.630053" lon="6.464126">
        <ele>212.100000</ele>
        <time>2010-04-05T13:47:20Z</time>
      </trkpt>
      <trkpt lat="50.630218" lon="6.463545">
        <ele>213.100000</ele>
        <time>2010-04-05T13:47:55Z</time>
      </trkpt>
      <trkpt lat="50.630293" lon="6.462899">
        <ele>213.100000</ele>
        <time>2010-04-05T13:48:33Z</time>
      </trkpt>
      <trkpt lat="50.630454" lon="6.462678">
        <ele>212.600000</ele>
        <time>2010-04-05T13:48:52Z</time>
      </trkpt>
      <trkpt lat="50.630557" lon="6.462610">
        <ele>213.100000</ele>
        <time>2010-04-05T13:49:02Z</time>
      </trkpt>
      <trkpt lat="50.630639" lon="6.462403">
        <ele>213.600000</ele>
        <time>2010-04-05T13:49:15Z</time>
      </trkpt>
      <trkpt lat="50.630642" lon="6.462136">
        <ele>213.100000</ele>
        <time>2010-04-05T13:49:31Z</time>
      </trkpt>
      <trkpt lat="50.630687" lon="6.461887">
        <ele>212.600000</ele>
        <time>2010-04-05T13:49:45Z</time>
      </trkpt>
      <trkpt lat="50.630700" lon="6.461553">
        <ele>213.100000</ele>
        <time>2010-04-05T13:50:04Z</time>
      </trkpt>
      <trkpt lat="50.630774" lon="6.461275">
        <ele>213.100000</ele>
        <time>2010-04-05T13:50:21Z</time>
      </trkpt>
      <trkpt lat="50.630773" lon="6.461088">
        <ele>215.000000</ele>
        <time>2010-04-05T13:50:32Z</time>
      </trkpt>
      <trkpt lat="50.630807" lon="6.460691">
        <ele>215.500000</ele>
        <time>2010-04-05T13:50:54Z</time>
      </trkpt>
      <trkpt lat="50.630762" lon="6.460282">
        <ele>213.600000</ele>
        <time>2010-04-05T13:51:18Z</time>
      </trkpt>
      <trkpt lat="50.630689" lon="6.460084">
        <ele>213.600000</ele>
        <time>2010-04-05T13:51:31Z</time>
      </trkpt>
      <trkpt lat="50.630693" lon="6.459947">
        <ele>213.600000</ele>
        <time>2010-04-05T13:51:39Z</time>
      </trkpt>
      <trkpt lat="50.630810" lon="6.459778">
        <ele>213.100000</ele>
        <time>2010-04-05T13:51:53Z</time>
      </trkpt>
      <trkpt lat="50.630933" lon="6.459522">
        <ele>213.100000</ele>
        <time>2010-04-05T13:52:11Z</time>
      </trkpt>
      <trkpt lat="50.631041" lon="6.459115">
        <ele>214.500000</ele>
        <time>2010-04-05T13:52:36Z</time>
      </trkpt>
      <trkpt lat="50.630992" lon="6.458993">
        <ele>215.000000</ele>
        <time>2010-04-05T13:52:44Z</time>
      </trkpt>
      <trkpt lat="50.630995" lon="6.458749">
        <ele>216.000000</ele>
        <time>2010-04-05T13:52:58Z</time>
      </trkpt>
      <trkpt lat="50.630949" lon="6.458510">
        <ele>214.500000</ele>
        <time>2010-04-05T13:53:12Z</time>
      </trkpt>
      <trkpt lat="50.630626" lon="6.457829">
        <ele>216.000000</ele>
        <time>2010-04-05T13:54:00Z</time>
      </trkpt>
      <trkpt lat="50.630594" lon="6.457641">
        <ele>216.400000</ele>
        <time>2010-04-05T13:54:11Z</time>
      </trkpt>
      <trkpt lat="50.630465" lon="6.457182">
        <ele>218.800000</ele>
        <time>2010-04-05T13:54:40Z</time>
      </trkpt>
      <trkpt lat="50.630405" lon="6.457110">
        <ele>218.400000</ele>
        <time>2010-04-05T13:54:46Z</time>
      </trkpt>
      <trkpt lat="50.630413" lon="6.456754">
        <ele>221.200000</ele>
        <time>2010-04-05T13:55:07Z</time>
      </trkpt>
      <trkpt lat="50.630544" lon="6.456576">
        <ele>223.600000</ele>
        <time>2010-04-05T13:55:22Z</time>
      </trkpt>
      <trkpt lat="50.630657" lon="6.456551">
        <ele>225.100000</ele>
        <time>2010-04-05T13:55:32Z</time>
      </trkpt>
      <trkpt lat="50.630760" lon="6.456487">
        <ele>226.000000</ele>
        <time>2010-04-05T13:55:42Z</time>
      </trkpt>
      <trkpt lat="50.630734" lon="6.456377">
        <ele>227.000000</ele>
        <time>2010-04-05T13:55:49Z</time>
      </trkpt>
      <trkpt lat="50.630600" lon="6.456111">
        <ele>226.000000</ele>
        <time>2010-04-05T13:56:08Z</time>
      </trkpt>
      <trkpt lat="50.630532" lon="6.455853">
        <ele>225.100000</ele>
        <time>2010-04-05T13:56:24Z</time>
      </trkpt>
      <trkpt lat="50.630351" lon="6.455479">
        <ele>223.600000</ele>
        <time>2010-04-05T13:56:50Z</time>
      </trkpt>
      <trkpt lat="50.630313" lon="6.455238">
        <ele>222.200000</ele>
        <time>2010-04-05T13:57:04Z</time>
      </trkpt>
      <trkpt lat="50.630217" lon="6.454959">
        <ele>224.100000</ele>
        <time>2010-04-05T13:57:22Z</time>
      </trkpt>
      <trkpt lat="50.630163" lon="6.454808">
        <ele>222.200000</ele>
        <time>2010-04-05T13:57:32Z</time>
      </trkpt>
      <trkpt lat="50.630082" lon="6.454599">
        <ele>223.200000</ele>
        <time>2010-04-05T13:57:46Z</time>
      </trkpt>
      <trkpt lat="50.629918" lon="6.454097">
        <ele>220.800000</ele>
        <time>2010-04-05T13:58:18Z</time>
      </trkpt>
      <trkpt lat="50.629726" lon="6.453947">
        <ele>218.800000</ele>
        <time>2010-04-05T13:58:37Z</time>
      </trkpt>
      <trkpt lat="50.629473" lon="6.453792">
        <ele>217.400000</ele>
        <time>2010-04-05T13:59:01Z</time>
      </trkpt>
      <trkpt lat="50.629226" lon="6.453722">
        <ele>215.500000</ele>
        <time>2010-04-05T13:59:24Z</time>
      </trkpt>
      <trkpt lat="50.629072" lon="6.453583">
        <ele>216.000000</ele>
        <time>2010-04-05T13:59:40Z</time>
      </trkpt>
      <trkpt lat="50.628998" lon="6.453417">
        <ele>216.000000</ele>
        <time>2010-04-05T13:59:51Z</time>
      </trkpt>
      <trkpt lat="50.628966" lon="6.453159">
        <ele>215.000000</ele>
        <time>2010-04-05T14:00:06Z</time>
      </trkpt>
      <trkpt lat="50.628890" lon="6.452954">
        <ele>215.500000</ele>
        <time>2010-04-05T14:00:19Z</time>
      </trkpt>
      <trkpt lat="50.628749" lon="6.452678">
        <ele>216.000000</ele>
        <time>2010-04-05T14:00:39Z</time>
      </trkpt>
      <trkpt lat="50.628664" lon="6.452662">
        <ele>215.000000</ele>
        <time>2010-04-05T14:00:47Z</time>
      </trkpt>
      <trkpt lat="50.628547" lon="6.452702">
        <ele>214.500000</ele>
        <time>2010-04-05T14:00:58Z</time>
      </trkpt>
      <trkpt lat="50.628318" lon="6.452884">
        <ele>214.000000</ele>
        <time>2010-04-05T14:01:21Z</time>
      </trkpt>
      <trkpt lat="50.628177" lon="6.453194">
        <ele>214.500000</ele>
        <time>2010-04-05T14:01:42Z</time>
      </trkpt>
      <trkpt lat="50.628097" lon="6.453266">
        <ele>214.500000</ele>
        <time>2010-04-05T14:01:50Z</time>
      </trkpt>
      <trkpt lat="50.628042" lon="6.453422">
        <ele>214.500000</ele>
        <time>2010-04-05T14:02:00Z</time>
      </trkpt>
      <trkpt lat="50.627998" lon="6.453578">
        <ele>215.000000</ele>
        <time>2010-04-05T14:02:10Z</time>
      </trkpt>
      <trkpt lat="50.627979" lon="6.453815">
        <ele>215.000000</ele>
        <time>2010-04-05T14:02:24Z</time>
      </trkpt>
      <trkpt lat="50.627999" lon="6.454952">
        <ele>215.500000</ele>
        <time>2010-04-05T14:03:28Z</time>
      </trkpt>
      <trkpt lat="50.628015" lon="6.455067">
        <ele>216.000000</ele>
        <time>2010-04-05T14:03:35Z</time>
      </trkpt>
      <trkpt lat="50.627998" lon="6.455123">
        <ele>215.000000</ele>
        <time>2010-04-05T14:03:38Z</time>
      </trkpt>
      <trkpt lat="50.628171" lon="6.455562">
        <ele>215.500000</ele>
        <time>2010-04-05T14:04:07Z</time>
      </trkpt>
      <trkpt lat="50.628238" lon="6.455842">
        <ele>215.500000</ele>
        <time>2010-04-05T14:04:24Z</time>
      </trkpt>
      <trkpt lat="50.628636" lon="6.456437">
        <ele>216.000000</ele>
        <time>2010-04-05T14:05:13Z</time>
      </trkpt>
      <trkpt lat="50.628781" lon="6.456778">
        <ele>216.000000</ele>
        <time>2010-04-05T14:05:36Z</time>
      </trkpt>
      <trkpt lat="50.628972" lon="6.457045">
        <ele>216.900000</ele>
        <time>2010-04-05T14:05:59Z</time>
      </trkpt>
      <trkpt lat="50.628967" lon="6.457133">
        <ele>216.900000</ele>
        <time>2010-04-05T14:06:04Z</time>
      </trkpt>
      <trkpt lat="50.629014" lon="6.457336">
        <ele>216.900000</ele>
        <time>2010-04-05T14:06:17Z</time>
      </trkpt>
      <trkpt lat="50.629219" lon="6.457668">
        <ele>217.400000</ele>
        <time>2010-04-05T14:06:43Z</time>
      </trkpt>
      <trkpt lat="50.629252" lon="6.457907">
        <ele>218.800000</ele>
        <time>2010-04-05T14:06:57Z</time>
      </trkpt>
      <trkpt lat="50.629268" lon="6.458068">
        <ele>218.400000</ele>
        <time>2010-04-05T14:07:06Z</time>
      </trkpt>
      <trkpt lat="50.629171" lon="6.458416">
        <ele>218.800000</ele>
        <time>2010-04-05T14:07:27Z</time>
      </trkpt>
      <trkpt lat="50.629125" lon="6.458721">
        <ele>219.800000</ele>
        <time>2010-04-05T14:07:45Z</time>
      </trkpt>
      <trkpt lat="50.629049" lon="6.458906">
        <ele>220.300000</ele>
        <time>2010-04-05T14:07:58Z</time>
      </trkpt>
      <trkpt lat="50.629050" lon="6.459151">
        <ele>220.300000</ele>
        <time>2010-04-05T14:08:11Z</time>
      </trkpt>
      <trkpt lat="50.628984" lon="6.459305">
        <ele>220.800000</ele>
        <time>2010-04-05T14:08:22Z</time>
      </trkpt>
      <trkpt lat="50.628989" lon="6.459611">
        <ele>221.200000</ele>
        <time>2010-04-05T14:08:39Z</time>
      </trkpt>
      <trkpt lat="50.629022" lon="6.459894">
        <ele>221.700000</ele>
        <time>2010-04-05T14:08:55Z</time>
      </trkpt>
      <trkpt lat="50.629005" lon="6.460215">
        <ele>221.700000</ele>
        <time>2010-04-05T14:09:14Z</time>
      </trkpt>
      <trkpt lat="50.628950" lon="6.460507">
        <ele>222.200000</ele>
        <time>2010-04-05T14:09:31Z</time>
      </trkpt>
      <trkpt lat="50.628947" lon="6.460774">
        <ele>221.200000</ele>
        <time>2010-04-05T14:09:46Z</time>
      </trkpt>
      <trkpt lat="50.628960" lon="6.460935">
        <ele>221.200000</ele>
        <time>2010-04-05T14:09:55Z</time>
      </trkpt>
      <trkpt lat="50.629050" lon="6.461053">
        <ele>222.200000</ele>
        <time>2010-04-05T14:10:06Z</time>
      </trkpt>
      <trkpt lat="50.629140" lon="6.461376">
        <ele>221.700000</ele>
        <time>2010-04-05T14:10:26Z</time>
      </trkpt>
      <trkpt lat="50.629291" lon="6.461719">
        <ele>222.700000</ele>
        <time>2010-04-05T14:10:49Z</time>
      </trkpt>
      <trkpt lat="50.629329" lon="6.462424">
        <ele>222.700000</ele>
        <time>2010-04-05T14:11:29Z</time>
      </trkpt>
      <trkpt lat="50.629356" lon="6.462499">
        <ele>223.200000</ele>
        <time>2010-04-05T14:11:34Z</time>
      </trkpt>
      <trkpt lat="50.629293" lon="6.462818">
        <ele>222.700000</ele>
        <time>2010-04-05T14:11:53Z</time>
      </trkpt>
      <trkpt lat="50.629304" lon="6.463064">
        <ele>222.700000</ele>
        <time>2010-04-05T14:12:07Z</time>
      </trkpt>
      <trkpt lat="50.629287" lon="6.463175">
        <ele>223.600000</ele>
        <time>2010-04-05T14:12:14Z</time>
      </trkpt>
      <trkpt lat="50.629230" lon="6.463983">
        <ele>222.200000</ele>
        <time>2010-04-05T14:12:59Z</time>
      </trkpt>
      <trkpt lat="50.629026" lon="6.464640">
        <ele>222.200000</ele>
        <time>2010-04-05T14:13:41Z</time>
      </trkpt>
      <trkpt lat="50.628978" lon="6.464908">
        <ele>222.200000</ele>
        <time>2010-04-05T14:13:57Z</time>
      </trkpt>
      <trkpt lat="50.628935" lon="6.464959">
        <ele>221.700000</ele>
        <time>2010-04-05T14:14:01Z</time>
      </trkpt>
      <trkpt lat="50.628896" lon="6.465547">
        <ele>221.200000</ele>
        <time>2010-04-05T14:14:35Z</time>
      </trkpt>
      <trkpt lat="50.628827" lon="6.465802">
        <ele>220.800000</ele>
        <time>2010-04-05T14:14:51Z</time>
      </trkpt>
      <trkpt lat="50.628755" lon="6.466360">
        <ele>221.200000</ele>
        <time>2010-04-05T14:15:23Z</time>
      </trkpt>
      <trkpt lat="50.628699" lon="6.466546">
        <ele>221.200000</ele>
        <time>2010-04-05T14:15:34Z</time>
      </trkpt>
      <trkpt lat="50.628648" lon="6.466989">
        <ele>220.300000</ele>
        <time>2010-04-05T14:16:00Z</time>
      </trkpt>
      <trkpt lat="50.628553" lon="6.467432">
        <ele>220.800000</ele>
        <time>2010-04-05T14:16:26Z</time>
      </trkpt>
      <trkpt lat="50.628459" lon="6.467685">
        <ele>220.800000</ele>
        <time>2010-04-05T14:16:43Z</time>
      </trkpt>
      <trkpt lat="50.628339" lon="6.468282">
        <ele>219.800000</ele>
        <time>2010-04-05T14:17:18Z</time>
      </trkpt>
      <trkpt lat="50.628276" lon="6.468737">
        <ele>219.300000</ele>
        <time>2010-04-05T14:17:45Z</time>
      </trkpt>
      <trkpt lat="50.628247" lon="6.469149">
        <ele>220.300000</ele>
        <time>2010-04-05T14:18:08Z</time>
      </trkpt>
      <trkpt lat="50.628045" lon="6.469896">
        <ele>220.300000</ele>
        <time>2010-04-05T14:18:54Z</time>
      </trkpt>
      <trkpt lat="50.628027" lon="6.470068">
        <ele>219.800000</ele>
        <time>2010-04-05T14:19:04Z</time>
      </trkpt>
      <trkpt lat="50.627976" lon="6.470249">
        <ele>219.800000</ele>
        <time>2010-04-05T14:19:15Z</time>
      </trkpt>
      <trkpt lat="50.627978" lon="6.470376">
        <ele>219.300000</ele>
        <time>2010-04-05T14:19:22Z</time>
      </trkpt>
      <trkpt lat="50.627922" lon="6.470726">
        <ele>219.800000</ele>
        <time>2010-04-05T14:19:43Z</time>
      </trkpt>
      <trkpt lat="50.627822" lon="6.470990">
        <ele>219.800000</ele>
        <time>2010-04-05T14:20:00Z</time>
      </trkpt>
      <trkpt lat="50.627704" lon="6.471211">
        <ele>219.300000</ele>
        <time>2010-04-05T14:20:17Z</time>
      </trkpt>
      <trkpt lat="50.627591" lon="6.471185">
        <ele>219.800000</ele>
        <time>2010-04-05T14:20:27Z</time>
      </trkpt>
      <trkpt lat="50.627645" lon="6.471322">
        <ele>219.800000</ele>
        <time>2010-04-05T14:20:36Z</time>
      </trkpt>
      <trkpt lat="50.627652" lon="6.471429">
        <ele>218.800000</ele>
        <time>2010-04-05T14:20:42Z</time>
      </trkpt>
      <trkpt lat="50.627646" lon="6.471270">
        <ele>218.400000</ele>
        <time>2010-04-05T14:20:51Z</time>
      </trkpt>
      <trkpt lat="50.627618" lon="6.471294">
        <ele>218.400000</ele>
        <time>2010-04-05T14:20:54Z</time>
      </trkpt>
      <trkpt lat="50.627475" lon="6.472526">
        <ele>217.900000</ele>
        <time>2010-04-05T14:22:05Z</time>
      </trkpt>
      <trkpt lat="50.627482" lon="6.472657">
        <ele>215.000000</ele>
        <time>2010-04-05T14:22:12Z</time>
      </trkpt>
      <trkpt lat="50.627458" lon="6.472958">
        <ele>218.400000</ele>
        <time>2010-04-05T14:22:29Z</time>
      </trkpt>
      <trkpt lat="50.627419" lon="6.473144">
        <ele>218.400000</ele>
        <time>2010-04-05T14:22:40Z</time>
      </trkpt>
      <trkpt lat="50.627389" lon="6.473134">
        <ele>217.900000</ele>
        <time>2010-04-05T14:22:43Z</time>
      </trkpt>
      <trkpt lat="50.627324" lon="6.472621">
        <ele>220.800000</ele>
        <time>2010-04-05T14:23:13Z</time>
      </trkpt>
      <trkpt lat="50.627299" lon="6.472573">
        <ele>220.300000</ele>
        <time>2010-04-05T14:23:16Z</time>
      </trkpt>
      <trkpt lat="50.627319" lon="6.472509">
        <ele>220.300000</ele>
        <time>2010-04-05T14:23:20Z</time>
      </trkpt>
      <trkpt lat="50.627205" lon="6.472300">
        <ele>222.200000</ele>
        <time>2010-04-05T14:23:36Z</time>
      </trkpt>
      <trkpt lat="50.627145" lon="6.472067">
        <ele>222.700000</ele>
        <time>2010-04-05T14:23:50Z</time>
      </trkpt>
      <trkpt lat="50.627079" lon="6.471973">
        <ele>224.100000</ele>
        <time>2010-04-05T14:23:58Z</time>
      </trkpt>
      <trkpt lat="50.627052" lon="6.471813">
        <ele>225.100000</ele>
        <time>2010-04-05T14:24:07Z</time>
      </trkpt>
      <trkpt lat="50.626967" lon="6.471652">
        <ele>225.100000</ele>
        <time>2010-04-05T14:24:19Z</time>
      </trkpt>
      <trkpt lat="50.627175" lon="6.471653">
        <ele>222.700000</ele>
        <time>2010-04-05T14:24:38Z</time>
      </trkpt>
      <trkpt lat="50.627097" lon="6.471411">
        <ele>224.600000</ele>
        <time>2010-04-05T14:24:53Z</time>
      </trkpt>
      <trkpt lat="50.626829" lon="6.470808">
        <ele>229.900000</ele>
        <time>2010-04-05T14:25:35Z</time>
      </trkpt>
      <trkpt lat="50.626605" lon="6.470349">
        <ele>230.400000</ele>
        <time>2010-04-05T14:26:08Z</time>
      </trkpt>
      <trkpt lat="50.626244" lon="6.469534">
        <ele>233.300000</ele>
        <time>2010-04-05T14:27:04Z</time>
      </trkpt>
      <trkpt lat="50.626128" lon="6.469376">
        <ele>233.300000</ele>
        <time>2010-04-05T14:27:17Z</time>
      </trkpt>
      <trkpt lat="50.625668" lon="6.468832">
        <ele>238.500000</ele>
        <time>2010-04-05T14:28:09Z</time>
      </trkpt>
      <trkpt lat="50.625669" lon="6.468713">
        <ele>240.900000</ele>
        <time>2010-04-05T14:28:16Z</time>
      </trkpt>
      <trkpt lat="50.625311" lon="6.468585">
        <ele>246.700000</ele>
        <time>2010-04-05T14:28:48Z</time>
      </trkpt>
      <trkpt lat="50.625122" lon="6.468568">
        <ele>249.100000</ele>
        <time>2010-04-05T14:29:05Z</time>
      </trkpt>
      <trkpt lat="50.625007" lon="6.468457">
        <ele>251.000000</ele>
        <time>2010-04-05T14:29:17Z</time>
      </trkpt>
      <trkpt lat="50.624951" lon="6.468360">
        <ele>253.000000</ele>
        <time>2010-04-05T14:29:25Z</time>
      </trkpt>
      <trkpt lat="50.624755" lon="6.468135">
        <ele>254.900000</ele>
        <time>2010-04-05T14:29:46Z</time>
      </trkpt>
      <trkpt lat="50.624418" lon="6.468028">
        <ele>255.400000</ele>
        <time>2010-04-05T14:30:17Z</time>
      </trkpt>
      <trkpt lat="50.624302" lon="6.467932">
        <ele>255.400000</ele>
        <time>2010-04-05T14:30:29Z</time>
      </trkpt>
      <trkpt lat="50.624313" lon="6.467895">
        <ele>258.700000</ele>
        <time>2010-04-05T14:30:31Z</time>
      </trkpt>
      <trkpt lat="50.624133" lon="6.467567">
        <ele>261.600000</ele>
        <time>2010-04-05T14:30:55Z</time>
      </trkpt>
      <trkpt lat="50.623911" lon="6.467390">
        <ele>265.500000</ele>
        <time>2010-04-05T14:31:18Z</time>
      </trkpt>
      <trkpt lat="50.623880" lon="6.467300">
        <ele>265.900000</ele>
        <time>2010-04-05T14:31:23Z</time>
      </trkpt>
      <trkpt lat="50.623785" lon="6.466676">
        <ele>271.200000</ele>
        <time>2010-04-05T14:32:00Z</time>
      </trkpt>
      <trkpt lat="50.623708" lon="6.466530">
        <ele>271.700000</ele>
        <time>2010-04-05T14:32:11Z</time>
      </trkpt>
      <trkpt lat="50.623423" lon="6.466411">
        <ele>274.600000</ele>
        <time>2010-04-05T14:32:37Z</time>
      </trkpt>
      <trkpt lat="50.623283" lon="6.466401">
        <ele>278.000000</ele>
        <time>2010-04-05T14:32:49Z</time>
      </trkpt>
      <trkpt lat="50.623076" lon="6.466331">
        <ele>279.900000</ele>
        <time>2010-04-05T14:33:08Z</time>
      </trkpt>
      <trkpt lat="50.622755" lon="6.466316">
        <ele>284.700000</ele>
        <time>2010-04-05T14:33:37Z</time>
      </trkpt>
      <trkpt lat="50.622637" lon="6.466301">
        <ele>284.700000</ele>
        <time>2010-04-05T14:33:47Z</time>
      </trkpt>
      <trkpt lat="50.622527" lon="6.466315">
        <ele>285.600000</ele>
        <time>2010-04-05T14:33:57Z</time>
      </trkpt>
      <trkpt lat="50.622437" lon="6.466290">
        <ele>286.600000</ele>
        <time>2010-04-05T14:34:05Z</time>
      </trkpt>
      <trkpt lat="50.622345" lon="6.466300">
        <ele>287.600000</ele>
        <time>2010-04-05T14:34:14Z</time>
      </trkpt>
      <trkpt lat="50.622326" lon="6.466360">
        <ele>288.500000</ele>
        <time>2010-04-05T14:34:17Z</time>
      </trkpt>
      <trkpt lat="50.622223" lon="6.466316">
        <ele>290.000000</ele>
        <time>2010-04-05T14:34:27Z</time>
      </trkpt>
      <trkpt lat="50.622161" lon="6.466400">
        <ele>291.400000</ele>
        <time>2010-04-05T14:34:34Z</time>
      </trkpt>
      <trkpt lat="50.622025" lon="6.466392">
        <ele>293.800000</ele>
        <time>2010-04-05T14:34:46Z</time>
      </trkpt>
      <trkpt lat="50.621869" lon="6.466409">
        <ele>296.700000</ele>
        <time>2010-04-05T14:35:00Z</time>
      </trkpt>
      <trkpt lat="50.621777" lon="6.466510">
        <ele>298.100000</ele>
        <time>2010-04-05T14:35:10Z</time>
      </trkpt>
      <trkpt lat="50.621594" lon="6.466564">
        <ele>299.600000</ele>
        <time>2010-04-05T14:35:27Z</time>
      </trkpt>
      <trkpt lat="50.621287" lon="6.466813">
        <ele>303.400000</ele>
        <time>2010-04-05T14:35:58Z</time>
      </trkpt>
      <trkpt lat="50.621094" lon="6.467026">
        <ele>309.700000</ele>
        <time>2010-04-05T14:36:19Z</time>
      </trkpt>
      <trkpt lat="50.620961" lon="6.467291">
        <ele>313.000000</ele>
        <time>2010-04-05T14:36:38Z</time>
      </trkpt>
      <trkpt lat="50.620828" lon="6.467436">
        <ele>315.400000</ele>
        <time>2010-04-05T14:36:52Z</time>
      </trkpt>
      <trkpt lat="50.620706" lon="6.467849">
        <ele>317.400000</ele>
        <time>2010-04-05T14:37:18Z</time>
      </trkpt>
      <trkpt lat="50.620607" lon="6.468148">
        <ele>321.200000</ele>
        <time>2010-04-05T14:37:37Z</time>
      </trkpt>
      <trkpt lat="50.620347" lon="6.468534">
        <ele>324.600000</ele>
        <time>2010-04-05T14:38:09Z</time>
      </trkpt>
      <trkpt lat="50.620098" lon="6.469053">
        <ele>329.400000</ele>
        <time>2010-04-05T14:38:46Z</time>
      </trkpt>
      <trkpt lat="50.619954" lon="6.469156">
        <ele>332.300000</ele>
        <time>2010-04-05T14:39:00Z</time>
      </trkpt>
      <trkpt lat="50.619946" lon="6.469155">
        <ele>332.800000</ele>
        <time>2010-04-05T14:39:01Z</time>
      </trkpt>
      <trkpt lat="50.619681" lon="6.469213">
        <ele>336.100000</ele>
        <time>2010-04-05T14:39:24Z</time>
      </trkpt>
      <trkpt lat="50.619556" lon="6.469365">
        <ele>339.000000</ele>
        <time>2010-04-05T14:39:39Z</time>
      </trkpt>
      <trkpt lat="50.619298" lon="6.469450">
        <ele>344.300000</ele>
        <time>2010-04-05T14:40:02Z</time>
      </trkpt>
      <trkpt lat="50.619173" lon="6.469557">
        <ele>347.700000</ele>
        <time>2010-04-05T14:40:15Z</time>
      </trkpt>
      <trkpt lat="50.619115" lon="6.469672">
        <ele>349.100000</ele>
        <time>2010-04-05T14:40:23Z</time>
      </trkpt>
      <trkpt lat="50.619051" lon="6.469715">
        <ele>349.100000</ele>
        <time>2010-04-05T14:40:29Z</time>
      </trkpt>
      <trkpt lat="50.618999" lon="6.469721">
        <ele>349.600000</ele>
        <time>2010-04-05T14:40:34Z</time>
      </trkpt>
      <trkpt lat="50.618937" lon="6.469798">
        <ele>351.500000</ele>
        <time>2010-04-05T14:40:41Z</time>
      </trkpt>
      <trkpt lat="50.618845" lon="6.469833">
        <ele>353.900000</ele>
        <time>2010-04-05T14:40:49Z</time>
      </trkpt>
      <trkpt lat="50.618759" lon="6.469815">
        <ele>355.800000</ele>
        <time>2010-04-05T14:40:57Z</time>
      </trkpt>
      <trkpt lat="50.618555" lon="6.469840">
        <ele>359.200000</ele>
        <time>2010-04-05T14:41:15Z</time>
      </trkpt>
      <trkpt lat="50.618449" lon="6.469862">
        <ele>363.000000</ele>
        <time>2010-04-05T14:41:25Z</time>
      </trkpt>
      <trkpt lat="50.618217" lon="6.470035">
        <ele>365.000000</ele>
        <time>2010-04-05T14:41:48Z</time>
      </trkpt>
      <trkpt lat="50.618094" lon="6.470151">
        <ele>365.400000</ele>
        <time>2010-04-05T14:42:01Z</time>
      </trkpt>
      <trkpt lat="50.617997" lon="6.470353">
        <ele>365.900000</ele>
        <time>2010-04-05T14:42:15Z</time>
      </trkpt>
      <trkpt lat="50.617869" lon="6.470692">
        <ele>370.200000</ele>
        <time>2010-04-05T14:42:37Z</time>
      </trkpt>
      <trkpt lat="50.617854" lon="6.470738">
        <ele>373.600000</ele>
        <time>2010-04-05T14:42:40Z</time>
      </trkpt>
      <trkpt lat="50.617759" lon="6.470968">
        <ele>376.500000</ele>
        <time>2010-04-05T14:42:56Z</time>
      </trkpt>
      <trkpt lat="50.617252" lon="6.471549">
        <ele>385.100000</ele>
        <time>2010-04-05T14:43:52Z</time>
      </trkpt>
      <trkpt lat="50.617166" lon="6.471810">
        <ele>387.100000</ele>
        <time>2010-04-05T14:44:08Z</time>
      </trkpt>
      <trkpt lat="50.616991" lon="6.471910">
        <ele>390.400000</ele>
        <time>2010-04-05T14:44:25Z</time>
      </trkpt>
      <trkpt lat="50.616893" lon="6.472066">
        <ele>390.400000</ele>
        <time>2010-04-05T14:44:37Z</time>
      </trkpt>
      <trkpt lat="50.616827" lon="6.472140">
        <ele>393.800000</ele>
        <time>2010-04-05T14:44:45Z</time>
      </trkpt>
      <trkpt lat="50.616613" lon="6.472310">
        <ele>396.200000</ele>
        <time>2010-04-05T14:45:06Z</time>
      </trkpt>
      <trkpt lat="50.616424" lon="6.472354">
        <ele>396.200000</ele>
        <time>2010-04-05T14:45:23Z</time>
      </trkpt>
      <trkpt lat="50.616369" lon="6.472446">
        <ele>397.600000</ele>
        <time>2010-04-05T14:45:30Z</time>
      </trkpt>
      <trkpt lat="50.616345" lon="6.472431">
        <ele>397.200000</ele>
        <time>2010-04-05T14:45:32Z</time>
      </trkpt>
      <trkpt lat="50.616687" lon="6.472926">
        <ele>401.000000</ele>
        <time>2010-04-05T14:46:14Z</time>
      </trkpt>
      <trkpt lat="50.616968" lon="6.472853">
        <ele>406.300000</ele>
        <time>2010-04-05T14:46:39Z</time>
      </trkpt>
      <trkpt lat="50.617361" lon="6.472934">
        <ele>411.600000</ele>
        <time>2010-04-05T14:47:15Z</time>
      </trkpt>
      <trkpt lat="50.617472" lon="6.472907">
        <ele>413.000000</ele>
        <time>2010-04-05T14:47:25Z</time>
      </trkpt>
      <trkpt lat="50.617685" lon="6.472927">
        <ele>414.900000</ele>
        <time>2010-04-05T14:47:44Z</time>
      </trkpt>
      <trkpt lat="50.617990" lon="6.473000">
        <ele>417.800000</ele>
        <time>2010-04-05T14:48:11Z</time>
      </trkpt>
      <trkpt lat="50.618152" lon="6.473106">
        <ele>420.200000</ele>
        <time>2010-04-05T14:48:27Z</time>
      </trkpt>
      <trkpt lat="50.618278" lon="6.473129">
        <ele>423.100000</ele>
        <time>2010-04-05T14:48:38Z</time>
      </trkpt>
      <trkpt lat="50.618427" lon="6.473201">
        <ele>426.500000</ele>
        <time>2010-04-05T14:48:52Z</time>
      </trkpt>
      <trkpt lat="50.618499" lon="6.473202">
        <ele>428.400000</ele>
        <time>2010-04-05T14:48:59Z</time>
      </trkpt>
      <trkpt lat="50.618660" lon="6.473279">
        <ele>431.300000</ele>
        <time>2010-04-05T14:49:14Z</time>
      </trkpt>
      <trkpt lat="50.618790" lon="6.473399">
        <ele>434.200000</ele>
        <time>2010-04-05T14:49:27Z</time>
      </trkpt>
      <trkpt lat="50.618718" lon="6.473599">
        <ele>436.600000</ele>
        <time>2010-04-05T14:49:40Z</time>
      </trkpt>
      <trkpt lat="50.618590" lon="6.473793">
        <ele>436.600000</ele>
        <time>2010-04-05T14:49:56Z</time>
      </trkpt>
      <trkpt lat="50.618300" lon="6.473839">
        <ele>439.500000</ele>
        <time>2010-04-05T14:50:22Z</time>
      </trkpt>
      <trkpt lat="50.618173" lon="6.474107">
        <ele>442.300000</ele>
        <time>2010-04-05T14:50:41Z</time>
      </trkpt>
      <trkpt lat="50.618084" lon="6.474389">
        <ele>444.300000</ele>
        <time>2010-04-05T14:50:59Z</time>
      </trkpt>
      <trkpt lat="50.618072" lon="6.474427">
        <ele>445.700000</ele>
        <time>2010-04-05T14:51:01Z</time>
      </trkpt>
      <trkpt lat="50.618032" lon="6.474885">
        <ele>449.100000</ele>
        <time>2010-04-05T14:51:27Z</time>
      </trkpt>
      <trkpt lat="50.617965" lon="6.475008">
        <ele>452.400000</ele>
        <time>2010-04-05T14:51:36Z</time>
      </trkpt>
      <trkpt lat="50.617934" lon="6.475157">
        <ele>453.400000</ele>
        <time>2010-04-05T14:51:45Z</time>
      </trkpt>
      <trkpt lat="50.618183" lon="6.475515">
        <ele>446.200000</ele>
        <time>2010-04-05T14:52:15Z</time>
      </trkpt>
      <trkpt lat="50.618228" lon="6.475666">
        <ele>445.200000</ele>
        <time>2010-04-05T14:52:25Z</time>
      </trkpt>
      <trkpt lat="50.618227" lon="6.475693">
        <ele>441.900000</ele>
        <time>2010-04-05T14:52:26Z</time>
      </trkpt>
      <trkpt lat="50.618238" lon="6.475737">
        <ele>443.300000</ele>
        <time>2010-04-05T14:52:29Z</time>
      </trkpt>
      <trkpt lat="50.618177" lon="6.476179">
        <ele>439.500000</ele>
        <time>2010-04-05T14:52:54Z</time>
      </trkpt>
      <trkpt lat="50.618071" lon="6.476356">
        <ele>438.000000</ele>
        <time>2010-04-05T14:53:08Z</time>
      </trkpt>
      <trkpt lat="50.617916" lon="6.476568">
        <ele>437.500000</ele>
        <time>2010-04-05T14:53:27Z</time>
      </trkpt>
      <trkpt lat="50.617703" lon="6.477031">
        <ele>438.000000</ele>
        <time>2010-04-05T14:53:59Z</time>
      </trkpt>
      <trkpt lat="50.617652" lon="6.477203">
        <ele>436.100000</ele>
        <time>2010-04-05T14:54:10Z</time>
      </trkpt>
      <trkpt lat="50.617452" lon="6.477656">
        <ele>432.700000</ele>
        <time>2010-04-05T14:54:41Z</time>
      </trkpt>
      <trkpt lat="50.617371" lon="6.478179">
        <ele>427.000000</ele>
        <time>2010-04-05T14:55:11Z</time>
      </trkpt>
      <trkpt lat="50.617403" lon="6.478268">
        <ele>426.000000</ele>
        <time>2010-04-05T14:55:17Z</time>
      </trkpt>
      <trkpt lat="50.617568" lon="6.478511">
        <ele>424.600000</ele>
        <time>2010-04-05T14:55:37Z</time>
      </trkpt>
      <trkpt lat="50.617756" lon="6.478537">
        <ele>424.100000</ele>
        <time>2010-04-05T14:55:54Z</time>
      </trkpt>
      <trkpt lat="50.617910" lon="6.478604">
        <ele>422.600000</ele>
        <time>2010-04-05T14:56:08Z</time>
      </trkpt>
      <trkpt lat="50.618217" lon="6.478793">
        <ele>421.200000</ele>
        <time>2010-04-05T14:56:38Z</time>
      </trkpt>
      <trkpt lat="50.618233" lon="6.478736">
        <ele>421.200000</ele>
        <time>2010-04-05T14:56:41Z</time>
      </trkpt>
      <trkpt lat="50.618208" lon="6.478760">
        <ele>421.200000</ele>
        <time>2010-04-05T14:56:44Z</time>
      </trkpt>
      <trkpt lat="50.618340" lon="6.478977">
        <ele>419.800000</ele>
        <time>2010-04-05T14:57:01Z</time>
      </trkpt>
      <trkpt lat="50.618553" lon="6.479156">
        <ele>416.900000</ele>
        <time>2010-04-05T14:57:22Z</time>
      </trkpt>
    </trkseg>
  </trk>

</gpx>
